Aérodrome :
LOGIN :

S'inscrire | Disclaimer

   EN    FR    IT 

 










Légende :    VFR   VFR Marginal   IFR   IFR Intensif   IFR Très Intensif
Visi : 
Plafond : 
>= 8 km
>= 3000ft
5 à 8 km
1000 à 3000 ft
1500m à 5 km
500 à 1000 ft
800 à 1500m
200 à 500 ft
< 800m
< 200 ft
Symboles :   Orages  Brouillard  Fortes neiges  Fortes précipitations  Vent > 20 kt
SIGMETs :   Divers  Orages  Givrage  Turbulence  Onde Orograph.  Cendres Volcan.







- Altitude de l'aérodrome : 74 ft
- Code IATA : EIN


EHEH - Eindhoven

DERNIER METAR :
  • 201925Z AUTO 36003KT 310V040 9999 OVC130 M03/M06 Q1021 BLU VRB03KT CAVOK

METARs EXPIRÉS :
  • 201910Z AUTO 36003KT 230V360 9999 OVC130 M03/M06 Q1021 BLU VRB03KT CAVOK
  • 201855Z AUTO 02004KT 9999 OVC130 M03/M05 Q1020 BLU 06004KT CAVOK
  • 201825Z AUTO 04002KT 9999 NCD M01/M05 Q1020 BLU 06004KT CAVOK
  • 201755Z AUTO 07003KT 9999 NCD M02/M06 Q1020 BLU 06004KT CAVOK
  • 201725Z AUTO 07003KT 020V120 9999 NCD M02/M06 Q1019 BLU 06004KT CAVOK
  • 201655Z AUTO 06003KT 010V100 9999 NCD M01/M06 Q1019 BLU 06005KT CAVOK

TAF TAF EHEH
Valide du 20 à 18h jusqu'au 22 à 00h UTC


201729Z 2018/2124 06003KT CAVOK
PROB30 2101/2109 1500 MIFG
BECMG 2109/2112 22005KT
Pas de NOTAMs connus pour ce terrain.



MET'MAP, la Météo Aéronautique d'un coup d'oeil ! - Copyright ORBIFLY Décembre 2007 - Disclaimer

ORBIFLY MET'MAP TEAM :

Programmation & Développement : Alexandra Zaïnal
Conception & Développement : Baudouin d'Aumeries
Co-Programmation & Développement : Marc-Olivier Méhu
Soutien technique & logistique : Manuel Goepfert

Contact : metmap@orbifly.com




SOURCES & CREDITS :

   NOAA